• Join FlightAware (Why Join?)
  • Login
  • US Flag 
09:45AM EDT


 

Airport Tracker/Info


-or-


 

Live Flight TrackerFlight Track Log ✈ NKT7 ✈ 03-Apr-2014 ✈ KGRR - KGLR

Flight Track Log - Related Links

Times and Time Zones

All times are in EDT time to prevent confusion due to time zone crossing. See the NKT7 flight status page for this flight to view local times or setup timezone preferences in your user account.

Time Position Orientation Groundspeed Altitude Reporting Facility
EDT Latitude Longitude Course Direction KTS MPH feet Rate Location/Type
11:19AM 42.9194 -85.4972 16° North 110 127 2,700  Level Chicago Center
11:20AM 42.9650 -85.4811 15° North 127 146 3,400 780 Climbing Chicago Center
11:21AM 43.0033 -85.4633 19° North 140 161 4,300 840 Climbing Chicago Center
11:22AM 43.0408 -85.4519 13° North 142 163 5,200 780 Climbing Chicago Center
11:23AM 43.0786 -85.4389 14° North 141 162 5,900 660 Climbing Chicago Center
11:24AM 43.1635 -85.4046 16° North  Level FlightAware Approximate
11:24AM 43.1233 -85.4200 17° North 161 185 6,600  Level Chicago Center
11:25AM 43.1703 -85.4014 16° North 173 199 7,200 600 Climbing Chicago Center
11:26AM 43.2181 -85.3867 13° North 175 201 7,900 720 Climbing Chicago Center
11:27AM 43.2753 -85.3661 15° North 175 201 8,800 780 Climbing Chicago Center
11:28AM 43.3192 -85.3464 18° North 171 197 9,500 780 Climbing Chicago Center
11:29AM 43.3622 -85.3325 13° North 162 186 10,500 840 Climbing Chicago Center
11:30AM 43.4031 -85.3192 13° North 154 177 11,300 780 Climbing Chicago Center
11:31AM 43.4447 -85.3025 16° North 154 177 12,100 720 Climbing Chicago Center
11:32AM 43.4853 -85.2872 15° North 154 177 12,900 420 Climbing Chicago Center
11:33AM 43.5425 -85.2661 15° North 178 205 13,000  Climbing Chicago Center
11:34AM 43.5969 -85.2475 14° North 200 230 13,000  Level Chicago Center
11:35AM 43.6511 -85.2253 17° North 201 231 13,100  Climbing Chicago Center
11:36AM 43.7064 -85.2056 14° North 203 234 13,000  Descending Chicago Center
11:37AM 43.7614 -85.1842 16° North 203 234 13,100  Climbing Chicago Center
11:38AM 43.8169 -85.1608 17° North 205 236 13,000 -120 Descending Chicago Center
11:39AM 43.8811 -85.1394 14° North 207 238 12,900  Descending Chicago Center
11:40AM 43.9386 -85.1186 15° North 207 238 13,000  Climbing Minneapolis Center
11:41AM 43.9922 -85.0958 17° North 207 238 12,900 -240 Descending Minneapolis Center
11:42AM 44.0456 -85.0783 13° North 207 238 12,600 -540 Descending Minneapolis Center
11:43AM 44.1042 -85.0564 15° North 212 244 11,900 -780 Descending Minneapolis Center
11:44AM 44.1764 -85.0261 17° North 224 258 11,100 -780 Descending Minneapolis Center
11:45AM 44.2378 -85.0067 13° North 224 258 10,300 -780 Descending Minneapolis Center
11:46AM 44.2975 -84.9819 17° North 224 258 9,600 -660 Descending Minneapolis Center
11:47AM 44.3581 -84.9572 16° North 225 259 9,000 -540 Descending Minneapolis Center
11:48AM 44.4189 -84.9353 14° North 225 259 8,500 -540 Descending Minneapolis Center
11:49AM 44.4781 -84.9167 13° North 224 258 7,900 -780 Descending Minneapolis Center
11:51AM 44.5369 -84.8953 15° North 222 255 7,000 -900 Descending Minneapolis Center
11:52AM 44.6075 -84.8672 16° North 222 255 6,100 -900 Descending Minneapolis Center
11:53AM 44.6656 -84.8469 14° North 222 255 5,200 -960 Descending Minneapolis Center
11:54AM 44.7244 -84.8261 14° North 222 255 4,200 -1,020 Descending Minneapolis Center
11:56AM 44.8063 -84.7776 16° North  Level FlightAware Approximate
12:03PM 45.0000 -84.7000 16° North  Level FlightAware Approximate
12:04PM 45.0130 -84.7034 349° North  Level Estimated
12:05PM 45.0130 -84.7034 North  Level Estimated
12:06PM 45.0130 -84.7034 North  Level Estimated
12:07PM 45.0130 -84.7034 North  Level Estimated